Sumpter, Oregon
Current Conditions -  °F | °C
As of 7:53 PM on Thursday 20 Nov 2014 (Local Time) from KBKE Reporting Station
Haze Haze  
Wind Chill: 28°   Ceiling: 11000
Heat Index: 28°   Visibility: 5mi
Dew Point: 25°   Wind: 0mph
Humidity: 88%   Direction: NA
Pressure: 30.04"   Gusts: NA
Location:  44.75°N, 118.2°W
Report Text: KBKE 210353Z AUTO 00000KT 5SM BR OVC110 M02/M04 A3004 RMK AO2 SLP201 T10221039 $
Loading
Personal Weather Stations






























Interactive Weather Map New forecast layout! Learn more

10-Day Weather Forecast

Advertisements
Track Severe Weather on mobile